sensor_id;sensor_type;location;lat;lon;timestamp;pressure;altitude;pressure_sealevel;temperature;humidity
52653;BME280;39353;42.864;12.014;2023-04-28T00:01:25;97841.13;;;22.68;49.64
52653;BME280;39353;42.864;12.014;2023-04-28T00:04:08;97842.23;;;22.67;49.75
52653;BME280;39353;42.864;12.014;2023-04-28T00:06:39;97845.44;;;22.66;49.83
52653;BME280;39353;42.864;12.014;2023-04-28T00:09:07;97843.66;;;22.66;49.81
52653;BME280;39353;42.864;12.014;2023-04-28T00:11:52;97843.98;;;22.65;49.76
52653;BME280;39353;42.864;12.014;2023-04-28T00:14:37;97845.02;;;22.63;49.84
52653;BME280;39353;42.864;12.014;2023-04-28T00:17:25;97848.20;;;22.61;49.89
52653;BME280;39353;42.864;12.014;2023-04-28T00:20:07;97851.77;;;22.62;49.78
52653;BME280;39353;42.864;12.014;2023-04-28T00:22:48;97852.36;;;22.61;49.92
52653;BME280;39353;42.864;12.014;2023-04-28T00:25:17;97847.61;;;22.61;49.83
52653;BME280;39353;42.864;12.014;2023-04-28T00:27:58;97848.59;;;22.61;49.97
52653;BME280;39353;42.864;12.014;2023-04-28T00:30:26;97842.91;;;22.60;50.02
52653;BME280;39353;42.864;12.014;2023-04-28T00:32:53;97841.48;;;22.60;49.92
52653;BME280;39353;42.864;12.014;2023-04-28T00:35:34;97844.06;;;22.58;49.90
52653;BME280;39353;42.864;12.014;2023-04-28T00:38:15;97840.58;;;22.59;49.93
52653;BME280;39353;42.864;12.014;2023-04-28T00:40:56;97839.37;;;22.57;49.98
52653;BME280;39353;42.864;12.014;2023-04-28T00:43:26;97837.03;;;22.55;50.10
52653;BME280;39353;42.864;12.014;2023-04-28T00:45:53;97836.55;;;22.54;50.04
52653;BME280;39353;42.864;12.014;2023-04-28T00:48:21;97836.25;;;22.53;49.94
52653;BME280;39353;42.864;12.014;2023-04-28T00:51:03;97834.09;;;22.52;49.96
52653;BME280;39353;42.864;12.014;2023-04-28T00:53:47;97836.96;;;22.51;49.92
52653;BME280;39353;42.864;12.014;2023-04-28T00:56:32;97839.79;;;22.51;50.00
52653;BME280;39353;42.864;12.014;2023-04-28T00:59:13;97839.64;;;22.49;49.93
52653;BME280;39353;42.864;12.014;2023-04-28T01:01:54;97836.02;;;22.49;50.07
52653;BME280;39353;42.864;12.014;2023-04-28T01:04:37;97833.04;;;22.47;50.07
52653;BME280;39353;42.864;12.014;2023-04-28T01:07:05;97837.70;;;22.49;50.06
52653;BME280;39353;42.864;12.014;2023-04-28T01:09:32;97842.20;;;22.47;50.04
52653;BME280;39353;42.864;12.014;2023-04-28T01:12:00;97837.27;;;22.46;50.10
52653;BME280;39353;42.864;12.014;2023-04-28T01:14:36;97838.68;;;22.46;50.07
52653;BME280;39353;42.864;12.014;2023-04-28T01:17:18;97840.46;;;22.45;50.19
52653;BME280;39353;42.864;12.014;2023-04-28T01:19:46;97836.69;;;22.45;50.22
52653;BME280;39353;42.864;12.014;2023-04-28T01:22:13;97840.06;;;22.45;50.22
52653;BME280;39353;42.864;12.014;2023-04-28T01:24:56;97839.68;;;22.43;50.09
52653;BME280;39353;42.864;12.014;2023-04-28T01:27:40;97839.70;;;22.43;50.20
52653;BME280;39353;42.864;12.014;2023-04-28T01:30:07;97836.08;;;22.43;50.19
52653;BME280;39353;42.864;12.014;2023-04-28T01:32:48;97835.08;;;22.42;50.18
52653;BME280;39353;42.864;12.014;2023-04-28T01:35:30;97835.98;;;22.42;50.14
52653;BME280;39353;42.864;12.014;2023-04-28T01:38:13;97835.73;;;22.42;50.17
52653;BME280;39353;42.864;12.014;2023-04-28T01:40:58;97835.64;;;22.41;50.33
52653;BME280;39353;42.864;12.014;2023-04-28T01:43:40;97839.73;;;22.40;50.31
52653;BME280;39353;42.864;12.014;2023-04-28T01:46:23;97840.04;;;22.40;50.20
52653;BME280;39353;42.864;12.014;2023-04-28T01:48:50;97843.37;;;22.39;50.16
52653;BME280;39353;42.864;12.014;2023-04-28T01:51:34;97842.02;;;22.39;50.38
52653;BME280;39353;42.864;12.014;2023-04-28T01:54:15;97840.03;;;22.37;50.29
52653;BME280;39353;42.864;12.014;2023-04-28T01:56:59;97839.11;;;22.37;50.39
52653;BME280;39353;42.864;12.014;2023-04-28T01:59:47;97840.96;;;22.37;50.36
52653;BME280;39353;42.864;12.014;2023-04-28T02:02:28;97843.38;;;22.37;50.22
52653;BME280;39353;42.864;12.014;2023-04-28T02:04:57;97849.48;;;22.36;50.15
52653;BME280;39353;42.864;12.014;2023-04-28T02:07:39;97854.19;;;22.36;50.30
52653;BME280;39353;42.864;12.014;2023-04-28T02:10:21;97855.23;;;22.36;50.21
52653;BME280;39353;42.864;12.014;2023-04-28T02:13:02;97858.11;;;22.34;50.27
52653;BME280;39353;42.864;12.014;2023-04-28T02:15:30;97858.16;;;22.34;50.25
52653;BME280;39353;42.864;12.014;2023-04-28T02:18:17;97861.83;;;22.33;50.32
52653;BME280;39353;42.864;12.014;2023-04-28T02:20:44;97860.62;;;22.32;50.26
52653;BME280;39353;42.864;12.014;2023-04-28T02:23:29;97862.59;;;22.31;50.39
52653;BME280;39353;42.864;12.014;2023-04-28T02:26:01;97867.30;;;22.31;50.46
52653;BME280;39353;42.864;12.014;2023-04-28T02:28:30;97867.18;;;22.31;50.36
52653;BME280;39353;42.864;12.014;2023-04-28T02:31:09;97864.73;;;22.29;50.46
52653;BME280;39353;42.864;12.014;2023-04-28T02:33:50;97858.96;;;22.28;50.43
52653;BME280;39353;42.864;12.014;2023-04-28T02:36:32;97857.74;;;22.28;50.54
52653;BME280;39353;42.864;12.014;2023-04-28T02:39:15;97855.91;;;22.27;50.44
52653;BME280;39353;42.864;12.014;2023-04-28T02:41:42;97852.38;;;22.28;50.44
52653;BME280;39353;42.864;12.014;2023-04-28T02:44:09;97853.39;;;22.27;50.47
52653;BME280;39353;42.864;12.014;2023-04-28T02:46:50;97859.02;;;22.28;50.45
52653;BME280;39353;42.864;12.014;2023-04-28T02:49:31;97860.56;;;22.29;50.48
52653;BME280;39353;42.864;12.014;2023-04-28T02:52:12;97857.92;;;22.28;50.39
52653;BME280;39353;42.864;12.014;2023-04-28T02:54:40;97860.70;;;22.28;50.39
52653;BME280;39353;42.864;12.014;2023-04-28T02:57:07;97857.98;;;22.27;50.35
52653;BME280;39353;42.864;12.014;2023-04-28T02:59:34;97855.54;;;22.26;50.37
52653;BME280;39353;42.864;12.014;2023-04-28T03:02:02;97853.88;;;22.25;50.42
52653;BME280;39353;42.864;12.014;2023-04-28T03:04:43;97852.92;;;22.24;50.47
52653;BME280;39353;42.864;12.014;2023-04-28T03:07:24;97850.69;;;22.24;50.53
52653;BME280;39353;42.864;12.014;2023-04-28T03:09:52;97853.59;;;22.24;50.54
52653;BME280;39353;42.864;12.014;2023-04-28T03:12:33;97859.27;;;22.24;50.42
52653;BME280;39353;42.864;12.014;2023-04-28T03:15:16;97861.14;;;22.25;50.33
52653;BME280;39353;42.864;12.014;2023-04-28T03:17:58;97862.45;;;22.25;50.32
52653;BME280;39353;42.864;12.014;2023-04-28T03:20:39;97860.70;;;22.24;50.25
52653;BME280;39353;42.864;12.014;2023-04-28T03:23:21;97858.51;;;22.24;50.30
52653;BME280;39353;42.864;12.014;2023-04-28T03:26:02;97855.41;;;22.23;50.34
52653;BME280;39353;42.864;12.014;2023-04-28T03:28:44;97848.58;;;22.23;50.47
52653;BME280;39353;42.864;12.014;2023-04-28T03:31:11;97853.19;;;22.22;50.37
52653;BME280;39353;42.864;12.014;2023-04-28T03:33:39;97851.56;;;22.21;50.51
52653;BME280;39353;42.864;12.014;2023-04-28T03:36:22;97857.75;;;22.19;50.59
52653;BME280;39353;42.864;12.014;2023-04-28T03:38:50;97854.11;;;22.18;50.47
52653;BME280;39353;42.864;12.014;2023-04-28T03:41:19;97852.69;;;22.18;50.58
52653;BME280;39353;42.864;12.014;2023-04-28T03:44:20;97843.08;;;22.16;50.55
52653;BME280;39353;42.864;12.014;2023-04-28T03:47:03;97847.74;;;22.15;50.68
52653;BME280;39353;42.864;12.014;2023-04-28T03:49:44;97846.20;;;22.15;50.60
52653;BME280;39353;42.864;12.014;2023-04-28T03:52:26;97845.83;;;22.13;50.70
52653;BME280;39353;42.864;12.014;2023-04-28T03:55:10;97840.88;;;22.12;50.71
52653;BME280;39353;42.864;12.014;2023-04-28T03:57:37;97843.52;;;22.13;50.66
52653;BME280;39353;42.864;12.014;2023-04-28T04:00:18;97844.20;;;22.12;50.73
52653;BME280;39353;42.864;12.014;2023-04-28T04:03:06;97847.08;;;22.11;50.78
52653;BME280;39353;42.864;12.014;2023-04-28T04:05:34;97852.27;;;22.11;50.65
52653;BME280;39353;42.864;12.014;2023-04-28T04:08:15;97851.14;;;22.10;50.68
52653;BME280;39353;42.864;12.014;2023-04-28T04:10:57;97850.30;;;22.09;50.73
52653;BME280;39353;42.864;12.014;2023-04-28T04:13:39;97852.37;;;22.09;50.62
52653;BME280;39353;42.864;12.014;2023-04-28T04:16:08;97859.35;;;22.08;50.89
52653;BME280;39353;42.864;12.014;2023-04-28T04:18:49;97866.54;;;22.08;50.70
52653;BME280;39353;42.864;12.014;2023-04-28T04:21:20;97867.09;;;22.08;50.80
52653;BME280;39353;42.864;12.014;2023-04-28T04:23:50;97862.98;;;22.07;50.76
52653;BME280;39353;42.864;12.014;2023-04-28T04:26:17;97866.50;;;22.07;50.85
52653;BME280;39353;42.864;12.014;2023-04-28T04:28:59;97865.84;;;22.07;50.64
52653;BME280;39353;42.864;12.014;2023-04-28T04:31:27;97869.99;;;22.07;50.84
52653;BME280;39353;42.864;12.014;2023-04-28T04:33:54;97870.04;;;22.07;50.74
52653;BME280;39353;42.864;12.014;2023-04-28T04:36:21;97871.73;;;22.06;50.90
52653;BME280;39353;42.864;12.014;2023-04-28T04:39:03;97882.80;;;22.05;50.69
52653;BME280;39353;42.864;12.014;2023-04-28T04:41:32;97885.11;;;22.04;50.74
52653;BME280;39353;42.864;12.014;2023-04-28T04:44:14;97883.90;;;22.04;50.65
52653;BME280;39353;42.864;12.014;2023-04-28T04:46:57;97889.07;;;22.03;50.73
52653;BME280;39353;42.864;12.014;2023-04-28T04:49:39;97890.04;;;22.04;50.65
52653;BME280;39353;42.864;12.014;2023-04-28T04:52:21;97888.46;;;22.05;50.57
52653;BME280;39353;42.864;12.014;2023-04-28T04:54:48;97892.05;;;22.05;50.70
52653;BME280;39353;42.864;12.014;2023-04-28T04:57:29;97892.88;;;22.06;50.83
52653;BME280;39353;42.864;12.014;2023-04-28T05:00:19;97893.40;;;22.02;49.08
52653;BME280;39353;42.864;12.014;2023-04-28T05:02:46;97899.30;;;22.00;49.13
52653;BME280;39353;42.864;12.014;2023-04-28T05:05:32;97902.59;;;22.01;49.38
52653;BME280;39353;42.864;12.014;2023-04-28T05:08:21;97908.58;;;22.02;49.43
52653;BME280;39353;42.864;12.014;2023-04-28T05:10:48;97909.73;;;22.03;49.74
52653;BME280;39353;42.864;12.014;2023-04-28T05:13:31;97906.81;;;22.03;49.18
52653;BME280;39353;42.864;12.014;2023-04-28T05:16:15;97905.98;;;22.02;49.43
52653;BME280;39353;42.864;12.014;2023-04-28T05:18:54;97906.08;;;22.02;49.72
52653;BME280;39353;42.864;12.014;2023-04-28T05:21:36;97903.79;;;22.02;49.94
52653;BME280;39353;42.864;12.014;2023-04-28T05:24:03;97903.36;;;22.02;49.88
52653;BME280;39353;42.864;12.014;2023-04-28T05:26:31;97902.78;;;22.03;49.32
52653;BME280;39353;42.864;12.014;2023-04-28T05:29:02;97907.50;;;22.02;48.09
52653;BME280;39353;42.864;12.014;2023-04-28T05:31:29;97909.40;;;21.98;47.38
52653;BME280;39353;42.864;12.014;2023-04-28T05:33:57;97911.52;;;21.98;47.97
52653;BME280;39353;42.864;12.014;2023-04-28T05:36:39;97911.91;;;21.97;47.76
52653;BME280;39353;42.864;12.014;2023-04-28T05:39:11;97905.31;;;21.97;47.92
52653;BME280;39353;42.864;12.014;2023-04-28T05:41:53;97905.38;;;21.98;47.91
52653;BME280;39353;42.864;12.014;2023-04-28T05:44:21;97911.73;;;21.99;48.08
52653;BME280;39353;42.864;12.014;2023-04-28T05:46:49;97910.58;;;22.01;48.27
52653;BME280;39353;42.864;12.014;2023-04-28T05:49:32;97909.99;;;22.05;48.61
52653;BME280;39353;42.864;12.014;2023-04-28T05:52:00;97906.09;;;22.09;48.88
52653;BME280;39353;42.864;12.014;2023-04-28T05:54:41;97902.97;;;22.13;48.81
52653;BME280;39353;42.864;12.014;2023-04-28T05:57:24;97901.80;;;22.12;48.41
52653;BME280;39353;42.864;12.014;2023-04-28T05:59:51;97903.73;;;22.12;48.80
52653;BME280;39353;42.864;12.014;2023-04-28T06:02:32;97907.33;;;22.16;49.13
52653;BME280;39353;42.864;12.014;2023-04-28T06:05:00;97910.91;;;22.18;49.26
52653;BME280;39353;42.864;12.014;2023-04-28T06:07:42;97914.35;;;22.21;49.27
52653;BME280;39353;42.864;12.014;2023-04-28T06:10:10;97918.70;;;22.23;49.18
52653;BME280;39353;42.864;12.014;2023-04-28T06:12:53;97925.13;;;22.24;49.26
52653;BME280;39353;42.864;12.014;2023-04-28T06:15:20;97937.60;;;22.26;49.25
52653;BME280;39353;42.864;12.014;2023-04-28T06:18:02;97948.38;;;22.28;49.36
52653;BME280;39353;42.864;12.014;2023-04-28T06:20:45;97947.13;;;22.26;49.58
52653;BME280;39353;42.864;12.014;2023-04-28T06:23:26;97942.23;;;22.25;49.51
52653;BME280;39353;42.864;12.014;2023-04-28T06:26:09;97941.94;;;22.25;49.23
52653;BME280;39353;42.864;12.014;2023-04-28T06:28:58;97940.23;;;22.23;49.20
52653;BME280;39353;42.864;12.014;2023-04-28T06:31:26;97948.79;;;22.21;49.24
52653;BME280;39353;42.864;12.014;2023-04-28T06:33:53;97953.70;;;22.21;48.99
52653;BME280;39353;42.864;12.014;2023-04-28T06:36:23;97951.05;;;22.21;48.91
52653;BME280;39353;42.864;12.014;2023-04-28T06:39:05;97955.32;;;22.19;48.74
52653;BME280;39353;42.864;12.014;2023-04-28T06:41:33;97960.91;;;22.18;48.51
52653;BME280;39353;42.864;12.014;2023-04-28T06:44:02;97963.40;;;22.17;48.48
52653;BME280;39353;42.864;12.014;2023-04-28T06:46:31;97969.55;;;22.17;48.49
52653;BME280;39353;42.864;12.014;2023-04-28T06:48:59;97970.14;;;22.17;48.47
52653;BME280;39353;42.864;12.014;2023-04-28T06:51:31;97974.53;;;22.18;48.27
52653;BME280;39353;42.864;12.014;2023-04-28T06:54:14;97975.98;;;22.21;48.65
52653;BME280;39353;42.864;12.014;2023-04-28T06:56:45;97979.50;;;22.23;48.59
52653;BME280;39353;42.864;12.014;2023-04-28T06:59:28;97975.13;;;22.25;48.38
52653;BME280;39353;42.864;12.014;2023-04-28T07:02:09;97975.52;;;22.25;48.08
52653;BME280;39353;42.864;12.014;2023-04-28T07:04:37;97984.56;;;22.26;47.74
52653;BME280;39353;42.864;12.014;2023-04-28T07:07:18;97984.08;;;22.24;47.43
52653;BME280;39353;42.864;12.014;2023-04-28T07:09:46;97979.50;;;22.25;46.44
52653;BME280;39353;42.864;12.014;2023-04-28T07:12:28;97974.47;;;22.23;46.32
52653;BME280;39353;42.864;12.014;2023-04-28T07:15:12;97971.45;;;22.21;45.35
52653;BME280;39353;42.864;12.014;2023-04-28T07:17:54;97965.92;;;22.19;45.01
52653;BME280;39353;42.864;12.014;2023-04-28T07:20:36;97965.39;;;22.21;46.11
52653;BME280;39353;42.864;12.014;2023-04-28T07:23:18;97968.11;;;22.28;46.26
52653;BME280;39353;42.864;12.014;2023-04-28T07:25:45;97967.79;;;22.31;46.61
52653;BME280;39353;42.864;12.014;2023-04-28T07:28:13;97967.67;;;22.33;46.77
52653;BME280;39353;42.864;12.014;2023-04-28T07:30:40;97974.48;;;22.35;46.71
52653;BME280;39353;42.864;12.014;2023-04-28T07:33:23;97969.01;;;22.36;46.91
52653;BME280;39353;42.864;12.014;2023-04-28T07:35:52;97967.30;;;22.38;47.08
52653;BME280;39353;42.864;12.014;2023-04-28T07:38:34;97964.52;;;22.39;47.04
52653;BME280;39353;42.864;12.014;2023-04-28T07:47:17;97961.29;;;22.42;46.77
52653;BME280;39353;42.864;12.014;2023-04-28T07:50:00;97956.23;;;22.41;46.91
52653;BME280;39353;42.864;12.014;2023-04-28T07:52:32;97955.15;;;22.43;46.72
52653;BME280;39353;42.864;12.014;2023-04-28T07:55:00;97949.98;;;22.43;46.78
52653;BME280;39353;42.864;12.014;2023-04-28T07:57:30;97948.71;;;22.44;46.88
52653;BME280;39353;42.864;12.014;2023-04-28T07:59:57;97955.66;;;22.44;46.96
52653;BME280;39353;42.864;12.014;2023-04-28T08:02:38;97958.55;;;22.44;46.95
52653;BME280;39353;42.864;12.014;2023-04-28T08:05:06;97955.87;;;22.44;47.01
52653;BME280;39353;42.864;12.014;2023-04-28T08:07:35;97955.23;;;22.43;47.06
52653;BME280;39353;42.864;12.014;2023-04-28T08:10:20;97957.89;;;22.44;47.07
52653;BME280;39353;42.864;12.014;2023-04-28T08:12:47;97957.77;;;22.44;47.12
52653;BME280;39353;42.864;12.014;2023-04-28T08:15:15;97953.09;;;22.43;47.10
52653;BME280;39353;42.864;12.014;2023-04-28T08:17:43;97954.08;;;22.43;47.04
52653;BME280;39353;42.864;12.014;2023-04-28T08:20:11;97953.17;;;22.42;47.13
52653;BME280;39353;42.864;12.014;2023-04-28T08:22:43;97956.65;;;22.42;47.06
52653;BME280;39353;42.864;12.014;2023-04-28T08:25:11;97951.71;;;22.43;47.11
52653;BME280;39353;42.864;12.014;2023-04-28T08:27:39;97950.58;;;22.43;47.12
52653;BME280;39353;42.864;12.014;2023-04-28T08:30:08;97948.76;;;22.43;47.17
52653;BME280;39353;42.864;12.014;2023-04-28T08:32:50;97951.84;;;22.43;47.11
52653;BME280;39353;42.864;12.014;2023-04-28T08:35:31;97956.93;;;22.43;47.08
52653;BME280;39353;42.864;12.014;2023-04-28T08:38:12;97956.83;;;22.42;47.08
52653;BME280;39353;42.864;12.014;2023-04-28T08:40:41;97957.80;;;22.43;46.76
52653;BME280;39353;42.864;12.014;2023-04-28T08:43:24;97957.13;;;22.42;45.77
52653;BME280;39353;42.864;12.014;2023-04-28T08:46:06;97949.67;;;22.38;46.45
52653;BME280;39353;42.864;12.014;2023-04-28T08:48:41;97939.12;;;22.34;46.73
52653;BME280;39353;42.864;12.014;2023-04-28T08:51:34;97937.29;;;22.31;46.76
52653;BME280;39353;42.864;12.014;2023-04-28T08:54:19;97936.90;;;22.33;46.71
52653;BME280;39353;42.864;12.014;2023-04-28T08:56:48;97938.10;;;22.35;46.46
52653;BME280;39353;42.864;12.014;2023-04-28T08:59:32;97934.45;;;22.35;46.95
52653;BME280;39353;42.864;12.014;2023-04-28T09:02:15;97933.55;;;22.36;47.08
52653;BME280;39353;42.864;12.014;2023-04-28T09:04:43;97932.34;;;22.36;47.23
52653;BME280;39353;42.864;12.014;2023-04-28T09:07:11;97935.27;;;22.35;47.42
52653;BME280;39353;42.864;12.014;2023-04-28T09:13:05;97933.17;;;22.35;47.00
52653;BME280;39353;42.864;12.014;2023-04-28T09:15:36;97935.13;;;22.37;47.14
52653;BME280;39353;42.864;12.014;2023-04-28T09:18:20;97939.20;;;22.41;47.28
52653;BME280;39353;42.864;12.014;2023-04-28T09:20:50;97936.34;;;22.44;47.24
52653;BME280;39353;42.864;12.014;2023-04-28T09:23:32;97940.31;;;22.47;47.51
52653;BME280;39353;42.864;12.014;2023-04-28T09:26:16;97943.33;;;22.49;47.37
52653;BME280;39353;42.864;12.014;2023-04-28T09:29:11;97951.58;;;22.53;47.25
52653;BME280;39353;42.864;12.014;2023-04-28T09:32:18;97950.61;;;22.57;47.20
52653;BME280;39353;42.864;12.014;2023-04-28T09:34:53;97947.11;;;22.58;46.55
52653;BME280;39353;42.864;12.014;2023-04-28T09:37:36;97949.64;;;22.62;46.74
52653;BME280;39353;42.864;12.014;2023-04-28T09:40:06;97953.76;;;22.65;46.72
52653;BME280;39353;42.864;12.014;2023-04-28T09:42:42;97950.33;;;22.67;46.62
52653;BME280;39353;42.864;12.014;2023-04-28T09:45:13;97947.23;;;22.70;46.62
52653;BME280;39353;42.864;12.014;2023-04-28T09:47:44;97936.59;;;22.72;46.50
52653;BME280;39353;42.864;12.014;2023-04-28T09:50:15;97937.02;;;22.74;46.25
52653;BME280;39353;42.864;12.014;2023-04-28T09:53:04;97945.71;;;22.74;46.25
52653;BME280;39353;42.864;12.014;2023-04-28T09:55:34;97938.58;;;22.73;46.16
52653;BME280;39353;42.864;12.014;2023-04-28T09:58:06;97935.02;;;22.75;46.08
52653;BME280;39353;42.864;12.014;2023-04-28T10:00:55;97932.92;;;22.78;46.29
52653;BME280;39353;42.864;12.014;2023-04-28T10:03:38;97923.41;;;22.81;46.28
52653;BME280;39353;42.864;12.014;2023-04-28T10:06:24;97923.30;;;22.84;46.42
52653;BME280;39353;42.864;12.014;2023-04-28T10:09:06;97918.86;;;22.85;46.33
52653;BME280;39353;42.864;12.014;2023-04-28T10:11:48;97919.10;;;22.86;46.45
52653;BME280;39353;42.864;12.014;2023-04-28T10:14:16;97925.40;;;22.88;46.46
52653;BME280;39353;42.864;12.014;2023-04-28T10:16:45;97918.15;;;22.89;46.51
52653;BME280;39353;42.864;12.014;2023-04-28T10:19:27;97916.80;;;22.91;46.58
52653;BME280;39353;42.864;12.014;2023-04-28T10:25:30;97916.52;;;22.89;46.63
52653;BME280;39353;42.864;12.014;2023-04-28T10:28:02;97911.14;;;22.89;46.87
52653;BME280;39353;42.864;12.014;2023-04-28T10:30:30;97901.05;;;22.90;46.75
52653;BME280;39353;42.864;12.014;2023-04-28T10:35:45;97906.20;;;22.91;46.82
52653;BME280;39353;42.864;12.014;2023-04-28T10:38:19;97903.02;;;22.92;46.68
52653;BME280;39353;42.864;12.014;2023-04-28T10:40:48;97908.25;;;22.96;46.79
52653;BME280;39353;42.864;12.014;2023-04-28T10:43:35;97900.27;;;22.97;46.69
52653;BME280;39353;42.864;12.014;2023-04-28T10:46:19;97898.03;;;23.01;47.08
52653;BME280;39353;42.864;12.014;2023-04-28T10:49:00;97895.77;;;23.07;47.22
52653;BME280;39353;42.864;12.014;2023-04-28T10:51:44;97893.61;;;23.12;47.49
52653;BME280;39353;42.864;12.014;2023-04-28T10:54:25;97883.72;;;23.17;47.89
52653;BME280;39353;42.864;12.014;2023-04-28T10:57:18;97882.48;;;23.21;48.91
52653;BME280;39353;42.864;12.014;2023-04-28T10:59:48;97879.02;;;23.27;50.38
52653;BME280;39353;42.864;12.014;2023-04-28T11:02:36;97886.16;;;23.27;49.57
52653;BME280;39353;42.864;12.014;2023-04-28T11:05:12;97880.83;;;23.23;48.91
52653;BME280;39353;42.864;12.014;2023-04-28T11:13:35;97882.61;;;23.22;50.03
52653;BME280;39353;42.864;12.014;2023-04-28T11:16:04;97884.84;;;23.20;49.80
52653;BME280;39353;42.864;12.014;2023-04-28T11:19:00;97877.79;;;23.18;49.67
52653;BME280;39353;42.864;12.014;2023-04-28T11:21:43;97872.73;;;23.17;49.66
52653;BME280;39353;42.864;12.014;2023-04-28T11:24:26;97868.91;;;23.16;49.62
52653;BME280;39353;42.864;12.014;2023-04-28T11:27:22;97866.73;;;23.16;49.68
52653;BME280;39353;42.864;12.014;2023-04-28T11:29:50;97865.05;;;23.17;50.03
52653;BME280;39353;42.864;12.014;2023-04-28T11:32:33;97857.99;;;23.17;50.31
52653;BME280;39353;42.864;12.014;2023-04-28T11:35:15;97859.88;;;23.14;50.38
52653;BME280;39353;42.864;12.014;2023-04-28T11:37:42;97856.34;;;23.12;50.25
52653;BME280;39353;42.864;12.014;2023-04-28T11:40:23;97853.33;;;23.10;50.36
52653;BME280;39353;42.864;12.014;2023-04-28T11:43:05;97858.02;;;23.08;50.47
52653;BME280;39353;42.864;12.014;2023-04-28T11:45:32;97855.97;;;23.07;50.23
52653;BME280;39353;42.864;12.014;2023-04-28T11:47:59;97852.27;;;23.06;50.33
52653;BME280;39353;42.864;12.014;2023-04-28T11:50:48;97847.20;;;23.04;50.31
52653;BME280;39353;42.864;12.014;2023-04-28T11:53:45;97847.17;;;23.01;50.11
52653;BME280;39353;42.864;12.014;2023-04-28T11:56:13;97846.86;;;22.98;50.06
52653;BME280;39353;42.864;12.014;2023-04-28T11:58:41;97845.25;;;22.97;50.07
52653;BME280;39353;42.864;12.014;2023-04-28T12:01:12;97845.05;;;22.96;50.07
52653;BME280;39353;42.864;12.014;2023-04-28T12:03:42;97842.02;;;22.93;50.26
52653;BME280;39353;42.864;12.014;2023-04-28T12:06:23;97836.56;;;22.91;49.92
52653;BME280;39353;42.864;12.014;2023-04-28T12:09:19;97843.68;;;22.89;49.86
52653;BME280;39353;42.864;12.014;2023-04-28T12:11:55;97838.64;;;22.89;49.85
52653;BME280;39353;42.864;12.014;2023-04-28T12:14:23;97835.48;;;22.89;49.56
52653;BME280;39353;42.864;12.014;2023-04-28T12:17:04;97839.27;;;22.90;49.64
52653;BME280;39353;42.864;12.014;2023-04-28T12:19:42;97835.94;;;22.91;49.57
52653;BME280;39353;42.864;12.014;2023-04-28T12:22:13;97838.63;;;22.91;49.70
52653;BME280;39353;42.864;12.014;2023-04-28T12:24:43;97834.41;;;22.91;49.70
52653;BME280;39353;42.864;12.014;2023-04-28T12:27:17;97838.98;;;22.94;49.55
52653;BME280;39353;42.864;12.014;2023-04-28T12:30:01;97840.77;;;22.95;49.60
52653;BME280;39353;42.864;12.014;2023-04-28T12:32:36;97844.84;;;22.96;49.48
52653;BME280;39353;42.864;12.014;2023-04-28T12:35:04;97846.80;;;22.98;49.54
52653;BME280;39353;42.864;12.014;2023-04-28T12:37:45;97847.61;;;22.97;49.52
52653;BME280;39353;42.864;12.014;2023-04-28T12:40:28;97846.70;;;22.98;49.64
52653;BME280;39353;42.864;12.014;2023-04-28T12:42:55;97848.71;;;22.99;49.51
52653;BME280;39353;42.864;12.014;2023-04-28T12:45:40;97847.94;;;23.03;49.53
52653;BME280;39353;42.864;12.014;2023-04-28T12:48:21;97847.11;;;23.05;49.34
52653;BME280;39353;42.864;12.014;2023-04-28T12:51:07;97849.95;;;23.07;49.32
52653;BME280;39353;42.864;12.014;2023-04-28T12:53:49;97851.77;;;23.07;49.40
52653;BME280;39353;42.864;12.014;2023-04-28T12:56:18;97841.39;;;23.08;49.42
52653;BME280;39353;42.864;12.014;2023-04-28T12:58:50;97839.91;;;23.08;49.29
52653;BME280;39353;42.864;12.014;2023-04-28T13:01:17;97840.20;;;23.05;49.23
52653;BME280;39353;42.864;12.014;2023-04-28T13:03:59;97831.52;;;23.03;49.01
52653;BME280;39353;42.864;12.014;2023-04-28T13:06:29;97826.11;;;23.02;48.91
52653;BME280;39353;42.864;12.014;2023-04-28T13:08:56;97830.59;;;23.01;48.77
52653;BME280;39353;42.864;12.014;2023-04-28T13:11:25;97826.73;;;23.00;48.81
52653;BME280;39353;42.864;12.014;2023-04-28T13:14:07;97822.70;;;22.99;48.88
52653;BME280;39353;42.864;12.014;2023-04-28T13:16:48;97818.52;;;23.00;48.97
52653;BME280;39353;42.864;12.014;2023-04-28T13:19:31;97822.46;;;23.04;48.89
52653;BME280;39353;42.864;12.014;2023-04-28T13:22:21;97817.30;;;23.03;44.47
52653;BME280;39353;42.864;12.014;2023-04-28T13:24:48;97814.43;;;23.01;44.36
52653;BME280;39353;42.864;12.014;2023-04-28T13:27:15;97810.30;;;22.98;45.30
52653;BME280;39353;42.864;12.014;2023-04-28T13:29:42;97814.92;;;22.99;46.01
52653;BME280;39353;42.864;12.014;2023-04-28T13:32:12;97809.16;;;22.98;46.60
52653;BME280;39353;42.864;12.014;2023-04-28T13:34:53;97807.73;;;22.98;46.79
52653;BME280;39353;42.864;12.014;2023-04-28T13:37:21;97800.02;;;22.98;46.91
52653;BME280;39353;42.864;12.014;2023-04-28T13:39:49;97796.59;;;22.97;46.72
52653;BME280;39353;42.864;12.014;2023-04-28T13:42:30;97792.27;;;22.95;45.70
52653;BME280;39353;42.864;12.014;2023-04-28T13:44:57;97784.45;;;22.91;45.84
52653;BME280;39353;42.864;12.014;2023-04-28T13:47:25;97783.52;;;22.91;46.25
52653;BME280;39353;42.864;12.014;2023-04-28T13:49:55;97781.20;;;22.92;46.17
52653;BME280;39353;42.864;12.014;2023-04-28T13:52:24;97774.22;;;22.91;46.18
52653;BME280;39353;42.864;12.014;2023-04-28T13:55:10;97774.05;;;22.91;46.38
52653;BME280;39353;42.864;12.014;2023-04-28T13:58:09;97777.20;;;22.92;46.14
52653;BME280;39353;42.864;12.014;2023-04-28T14:00:39;97777.58;;;22.92;45.68